Archival Weather

Norman Y Mineta San Jose Intl

San Jose, California (KSJC)

Report from: Wednesday, January 31, 2024 8:53 PM PST
Current time: Monday, June 24, 2024 2:38 AM PDT

Current weather – Weather history – Daily summaries
Weather forecast

Present weatherHeavy rain
Temperature13.3°C (55.9°F)
Dew point10.6°C (51.1°F)
Winds 14 kts (7.2 m/s, 16.1 mph) Southwest (230°)
Peak wind 31 kts (15.9 m/s, 35.7 mph) South (170°) at 04:08
Visibility2.5 mi. (4 km)
Clouds Scattered clouds 1,400 ft. (427 m)
Ceiling: Broken clouds 2,700 ft. (823 m)
Overcast 4,800 ft. (1,463 m)
Altimeter29.65 in.Hg (1004 mB)
Precipitiation0.18 in. (5 mm)
Relative humidity84 %
Density altitude296 ft. (90 m)
Sea-level pressure100.4 kPa (1004 mB, 29.65 in.Hg)
Remarks Automated weather observing station with precipitation discriminator
Flight conditions Instrument Meteorological Conditions
Raw dataKSJC 010453Z 23014KT 2 1/2SM +RA SCT014 BKN027 OVC048 13/11 A2965 RMK AO2 PK WND 17031/0408 SLP039 P0018 T01330106
An error has occurred. This application may no longer respond until reloaded. Reload 🗙